createdAt,value
2022-10-05T00:00:28.205Z,1.90
2022-10-05T00:10:32.811Z,1.90
2022-10-05T00:20:36.069Z,2.00
2022-10-05T00:30:41.175Z,2.00
2022-10-05T00:41:00.807Z,2.00
2022-10-05T00:51:23.858Z,2.00
2022-10-05T01:01:33.242Z,2.00
2022-10-05T01:11:48.393Z,2.00
2022-10-05T01:21:58.705Z,2.00
2022-10-05T01:32:11.647Z,1.90
2022-10-05T01:42:26.548Z,2.00
2022-10-05T01:52:44.973Z,1.80
2022-10-05T02:02:53.224Z,1.70
2022-10-05T02:13:03.472Z,1.60
2022-10-05T02:23:14.910Z,1.50
2022-10-05T02:33:25.857Z,1.40
2022-10-05T02:43:44.325Z,1.30
2022-10-05T02:54:03.330Z,1.40
2022-10-05T03:04:21.415Z,1.40
2022-10-05T03:14:34.062Z,1.40
2022-10-05T03:25:00.424Z,1.40
2022-10-05T03:35:13.031Z,1.30
2022-10-05T03:45:26.440Z,1.30
2022-10-05T03:55:40.166Z,1.30
2022-10-05T04:05:50.537Z,1.20
2022-10-05T04:16:03.781Z,1.30
2022-10-05T04:26:12.783Z,1.40
2022-10-05T04:36:25.873Z,1.30
2022-10-05T04:46:43.471Z,1.30
2022-10-05T04:56:54.797Z,1.30
2022-10-05T05:07:16.026Z,1.10
2022-10-05T05:17:47.889Z,1.30
2022-10-05T05:27:56.471Z,1.40
2022-10-05T05:38:17.893Z,1.70
2022-10-05T05:48:33.328Z,2.10
2022-10-05T05:58:47.679Z,2.60
2022-10-05T06:08:56.172Z,3.60
2022-10-05T06:19:16.408Z,4.30
2022-10-05T06:29:25.200Z,5.20
2022-10-05T06:40:01.068Z,6.40
2022-10-05T06:50:20.425Z,7.60
2022-10-05T07:00:53.270Z,13.30
2022-10-05T07:11:14.414Z,18.10
2022-10-05T07:21:31.241Z,19.40
2022-10-05T07:31:45.469Z,23.60
2022-10-05T07:42:03.400Z,25.50
2022-10-05T07:52:12.483Z,23.80
2022-10-05T08:02:28.443Z,24.00
2022-10-05T08:12:37.244Z,24.60
2022-10-05T08:22:47.159Z,24.70
2022-10-05T08:32:57.185Z,28.40
2022-10-05T08:43:12.363Z,30.50
2022-10-05T08:53:38.472Z,33.20
2022-10-05T09:04:13.471Z,32.20
2022-10-05T09:14:45.157Z,26.70
2022-10-05T09:25:00.485Z,23.80
2022-10-05T09:35:20.423Z,23.10
2022-10-05T09:46:12.472Z,22.60
2022-10-05T09:57:06.005Z,24.70
2022-10-05T10:07:50.270Z,24.90
2022-10-05T10:18:27.503Z,24.80
2022-10-05T10:28:54.361Z,25.20
2022-10-05T10:39:03.956Z,26.20
2022-10-05T10:49:27.104Z,26.00
2022-10-05T11:00:29.796Z,28.00
2022-10-05T11:11:23.629Z,33.40
2022-10-05T11:21:34.341Z,34.20
2022-10-05T11:32:14.157Z,32.80
2022-10-05T11:43:03.521Z,31.30
2022-10-05T11:53:21.038Z,31.40
2022-10-05T12:03:44.631Z,30.80
2022-10-05T12:13:57.251Z,29.50
2022-10-05T12:24:08.684Z,27.90
2022-10-05T12:34:28.994Z,26.20
2022-10-05T12:45:06.518Z,27.60
2022-10-05T12:55:19.257Z,29.30
2022-10-05T13:05:32.242Z,30.20
2022-10-05T13:15:46.593Z,30.40
2022-10-05T13:25:58.460Z,30.40
2022-10-05T13:36:12.380Z,29.60
2022-10-05T13:46:29.380Z,28.00
2022-10-05T13:56:38.777Z,24.40
2022-10-05T14:06:42.146Z,21.80
2022-10-05T14:16:53.591Z,20.10
2022-10-05T14:26:59.362Z,19.40
2022-10-05T14:37:19.199Z,18.70
2022-10-05T14:47:26.383Z,18.30
2022-10-05T14:57:42.087Z,17.90
2022-10-05T15:07:49.754Z,17.20
2022-10-05T15:18:00.820Z,16.70
2022-10-05T15:28:13.668Z,16.30
2022-10-05T15:38:25.634Z,15.70
2022-10-05T15:48:42.413Z,15.00
2022-10-05T15:58:55.056Z,14.30
2022-10-05T16:09:15.002Z,13.60
2022-10-05T16:19:28.990Z,12.80
2022-10-05T16:29:44.067Z,12.00
2022-10-05T16:39:57.772Z,11.40
2022-10-05T16:50:13.233Z,10.90
2022-10-05T17:00:22.096Z,10.60
2022-10-05T17:10:49.919Z,10.50
2022-10-05T17:21:05.517Z,10.10
2022-10-05T17:31:17.442Z,9.90
2022-10-05T17:41:25.313Z,9.60
2022-10-05T17:52:19.008Z,9.30
2022-10-05T18:02:39.429Z,9.00
2022-10-05T18:13:19.721Z,8.90
2022-10-05T18:23:35.455Z,8.80
2022-10-05T18:33:57.800Z,8.50
2022-10-05T18:44:18.818Z,8.30
2022-10-05T18:54:48.593Z,8.00
2022-10-05T19:05:29.274Z,7.80
2022-10-05T19:15:49.117Z,7.70
2022-10-05T19:25:58.808Z,7.50
2022-10-05T19:36:22.619Z,7.30
2022-10-05T19:46:43.169Z,7.20
2022-10-05T19:56:53.434Z,7.10
2022-10-05T20:06:57.044Z,7.00
2022-10-05T20:17:44.551Z,6.70
2022-10-05T20:27:50.163Z,6.50
2022-10-05T20:38:00.294Z,6.40
2022-10-05T20:48:03.968Z,6.40
2022-10-05T20:58:11.265Z,6.20
2022-10-05T21:08:15.241Z,6.00
2022-10-05T21:18:20.281Z,5.70
2022-10-05T21:28:23.687Z,5.40
2022-10-05T21:38:28.990Z,5.30
2022-10-05T21:48:35.275Z,5.10
2022-10-05T21:58:42.541Z,5.10
2022-10-05T22:08:46.091Z,5.10
2022-10-05T22:18:53.630Z,5.30
2022-10-05T22:28:57.113Z,5.40
2022-10-05T22:39:02.017Z,5.50
2022-10-05T22:49:05.243Z,5.60
2022-10-05T22:59:09.868Z,5.30
2022-10-05T23:09:13.095Z,4.90
2022-10-05T23:19:17.987Z,4.70
2022-10-05T23:29:21.301Z,4.40
2022-10-05T23:39:25.959Z,4.10
2022-10-05T23:49:29.202Z,3.80
2022-10-05T23:59:33.805Z,3.70
